createdAt,value
2022-10-26T00:01:14.484Z,100869.63
2022-10-26T00:03:43.550Z,100858.47
2022-10-26T00:06:12.274Z,100868.22
2022-10-26T00:08:39.856Z,100872.09
2022-10-26T00:11:08.143Z,100865.75
2022-10-26T00:13:36.615Z,100861.31
2022-10-26T00:16:21.192Z,100864.78
2022-10-26T00:18:48.837Z,100871.59
2022-10-26T00:21:16.709Z,100879.44
2022-10-26T00:23:44.033Z,100865.66
2022-10-26T00:26:11.702Z,100883.94
2022-10-26T00:28:39.818Z,100878.25
2022-10-26T00:31:11.697Z,100875.31
2022-10-26T00:33:39.060Z,100879.53
2022-10-26T00:36:06.810Z,100875.59
2022-10-26T00:38:34.158Z,100870.13
2022-10-26T00:41:01.392Z,100858.84
2022-10-26T00:43:28.705Z,100870.53
2022-10-26T00:45:59.401Z,100872.81
2022-10-26T00:48:30.811Z,100865.03
2022-10-26T00:51:01.445Z,100862.31
2022-10-26T00:53:30.326Z,100870.72
2022-10-26T00:55:57.761Z,100861.25
2022-10-26T00:58:26.413Z,100867.06
2022-10-26T01:00:53.833Z,100870.25
2022-10-26T01:03:22.534Z,100868.38
2022-10-26T01:05:50.066Z,100873.72
2022-10-26T01:11:01.083Z,100874.91
2022-10-26T01:13:31.363Z,100877.34
2022-10-26T01:16:08.783Z,100870.56
2022-10-26T01:18:52.940Z,100868.19
2022-10-26T01:22:00.709Z,100866.03
2022-10-26T01:24:47.114Z,100865.53
2022-10-26T01:27:29.750Z,100864.16
2022-10-26T01:30:14.306Z,100863.78
2022-10-26T01:32:53.830Z,100865.28
2022-10-26T01:35:21.175Z,100862.06
2022-10-26T01:37:59.113Z,100860.81
2022-10-26T01:40:45.076Z,100857.13
2022-10-26T01:43:15.615Z,100848.25
2022-10-26T01:45:46.595Z,100847.38
2022-10-26T01:48:18.349Z,100841.69
2022-10-26T01:50:48.593Z,100840.94
2022-10-26T01:53:17.191Z,100839.72
2022-10-26T01:55:51.534Z,100836.59
2022-10-26T01:59:19.791Z,100829.41
2022-10-26T02:01:51.082Z,100830.25
2022-10-26T02:04:38.190Z,100830.56
2022-10-26T02:07:22.159Z,100824.28
2022-10-26T02:10:08.850Z,100823.50
2022-10-26T02:12:54.379Z,100831.03
2022-10-26T02:15:23.827Z,100831.06
2022-10-26T02:18:04.494Z,100831.81
2022-10-26T02:20:36.477Z,100831.34
2022-10-26T02:23:07.724Z,100828.94
2022-10-26T02:25:42.512Z,100841.97
2022-10-26T02:28:18.640Z,100845.00
2022-10-26T02:30:47.929Z,100846.88
2022-10-26T02:33:16.436Z,100849.38
2022-10-26T02:35:49.550Z,100851.97
2022-10-26T02:38:19.989Z,100844.94
2022-10-26T02:40:52.626Z,100848.09
2022-10-26T02:43:22.478Z,100851.13
2022-10-26T02:45:54.318Z,100857.81
2022-10-26T02:48:22.869Z,100859.66
2022-10-26T02:51:01.851Z,100858.66
2022-10-26T02:53:52.084Z,100854.00
2022-10-26T02:56:25.698Z,100849.00
2022-10-26T02:58:58.581Z,100853.88
2022-10-26T03:01:28.006Z,100845.84
2022-10-26T03:03:59.305Z,100840.91
2022-10-26T03:06:27.139Z,100846.09
2022-10-26T03:08:54.737Z,100833.84
2022-10-26T03:11:21.992Z,100835.84
2022-10-26T03:13:49.317Z,100844.38
2022-10-26T03:16:16.659Z,100836.22
2022-10-26T03:18:44.058Z,100841.41
2022-10-26T03:21:11.403Z,100842.03
2022-10-26T03:23:38.775Z,100844.75
2022-10-26T03:26:06.260Z,100840.16
2022-10-26T03:28:33.521Z,100847.69
2022-10-26T03:31:00.976Z,100850.53
2022-10-26T03:33:28.497Z,100842.53
2022-10-26T03:35:57.177Z,100845.22
2022-10-26T03:38:24.909Z,100849.81
2022-10-26T03:40:52.584Z,100858.66
2022-10-26T03:43:20.290Z,100855.22
2022-10-26T03:45:47.520Z,100858.31
2022-10-26T03:48:14.919Z,100851.38
2022-10-26T03:50:42.345Z,100862.25
2022-10-26T03:53:10.289Z,100850.78
2022-10-26T03:55:37.934Z,100853.50
2022-10-26T03:58:05.465Z,100848.44
2022-10-26T04:00:32.793Z,100854.97
2022-10-26T04:03:01.063Z,100851.66
2022-10-26T04:05:29.897Z,100856.47
2022-10-26T04:07:59.205Z,100855.59
2022-10-26T04:10:28.291Z,100850.78
2022-10-26T04:12:56.252Z,100851.53
2022-10-26T04:15:24.152Z,100869.53
2022-10-26T04:17:59.523Z,100858.66
2022-10-26T04:20:28.343Z,100860.63
2022-10-26T04:23:06.594Z,100858.91
2022-10-26T04:25:34.589Z,100859.63
2022-10-26T04:28:03.733Z,100861.25
2022-10-26T04:30:32.483Z,100866.56
2022-10-26T04:33:00.649Z,100853.13
2022-10-26T04:35:28.876Z,100868.28
2022-10-26T04:38:04.386Z,100860.88
2022-10-26T04:40:32.519Z,100875.31
2022-10-26T04:43:00.207Z,100873.97
2022-10-26T04:45:33.735Z,100883.59
2022-10-26T04:48:10.306Z,100882.59
2022-10-26T04:50:38.338Z,100882.34
2022-10-26T04:53:07.282Z,100888.16
2022-10-26T04:55:35.275Z,100890.38
2022-10-26T04:58:03.001Z,100887.78
2022-10-26T05:00:33.127Z,100889.63
2022-10-26T05:03:06.470Z,100881.38
2022-10-26T05:05:35.377Z,100888.56
2022-10-26T05:08:02.617Z,100893.34
2022-10-26T05:10:30.238Z,100890.88
2022-10-26T05:12:59.521Z,100889.03
2022-10-26T05:15:27.657Z,100884.88
2022-10-26T05:17:58.769Z,100884.41
2022-10-26T05:20:30.975Z,100877.09
2022-10-26T05:22:59.678Z,100895.00
2022-10-26T05:25:31.086Z,100891.31
2022-10-26T05:28:02.833Z,100895.09
2022-10-26T05:30:31.696Z,100892.41
2022-10-26T05:33:03.491Z,100893.41
2022-10-26T05:35:31.942Z,100889.81
2022-10-26T05:38:00.197Z,100891.78
2022-10-26T05:40:28.037Z,100883.75
2022-10-26T05:43:01.789Z,100882.38
2022-10-26T05:45:29.623Z,100889.53
2022-10-26T05:47:59.967Z,100887.78
2022-10-26T05:50:29.967Z,100887.38
2022-10-26T05:52:57.430Z,100881.31
2022-10-26T05:55:25.273Z,100897.97
2022-10-26T05:57:53.846Z,100904.28
2022-10-26T06:00:26.383Z,100902.66
2022-10-26T06:03:18.655Z,100907.69
2022-10-26T06:05:56.751Z,100914.34
2022-10-26T06:08:27.184Z,100912.97
2022-10-26T06:10:55.892Z,100916.03
2022-10-26T06:13:23.643Z,100925.47
2022-10-26T06:16:09.511Z,100926.75
2022-10-26T06:18:58.249Z,100934.97
2022-10-26T06:21:45.248Z,100932.38
2022-10-26T06:24:30.745Z,100929.25
2022-10-26T06:26:57.966Z,100930.22
2022-10-26T06:29:50.341Z,100940.69
2022-10-26T06:32:18.153Z,100930.59
2022-10-26T06:34:48.298Z,100941.28
2022-10-26T06:37:15.940Z,100946.47
2022-10-26T06:39:49.990Z,100945.31
2022-10-26T06:42:20.840Z,100950.03
2022-10-26T06:44:48.788Z,100950.69
2022-10-26T06:47:34.896Z,100953.25
2022-10-26T06:50:10.082Z,100954.84
2022-10-26T06:52:58.542Z,100961.81
2022-10-26T06:55:27.646Z,100957.72
2022-10-26T06:57:55.348Z,100966.53
2022-10-26T07:00:25.497Z,100971.47
2022-10-26T07:02:53.442Z,100978.75
2022-10-26T07:05:21.269Z,100970.59
2022-10-26T07:07:49.112Z,100973.94
2022-10-26T07:10:16.865Z,100969.78
2022-10-26T07:12:44.240Z,100975.69
2022-10-26T07:15:12.540Z,100968.06
2022-10-26T07:17:49.582Z,100968.84
2022-10-26T07:20:20.394Z,100978.63
2022-10-26T07:22:57.782Z,100986.00
2022-10-26T07:25:26.701Z,100978.38
2022-10-26T07:27:59.169Z,100975.25
2022-10-26T07:30:30.426Z,100980.31
2022-10-26T07:33:06.029Z,100974.97
2022-10-26T07:35:34.425Z,100985.31
2022-10-26T07:38:02.664Z,100985.16
2022-10-26T07:40:30.299Z,100988.31
2022-10-26T07:42:59.587Z,100990.16
2022-10-26T07:45:27.487Z,100991.66
2022-10-26T07:47:54.765Z,100982.22
2022-10-26T07:50:22.901Z,100983.63
2022-10-26T07:52:50.884Z,100981.59
2022-10-26T07:55:19.428Z,100975.34
2022-10-26T07:57:49.674Z,100970.88
2022-10-26T08:00:21.334Z,100965.44
2022-10-26T08:02:48.852Z,100973.91
2022-10-26T08:05:16.267Z,100973.16
2022-10-26T08:07:46.927Z,100981.47
2022-10-26T08:10:15.298Z,100980.34
2022-10-26T08:12:44.309Z,100984.22
2022-10-26T08:15:11.853Z,100965.75
2022-10-26T08:17:39.195Z,100978.00
2022-10-26T08:20:07.037Z,100985.94
2022-10-26T08:22:34.427Z,100980.19
2022-10-26T08:25:01.730Z,100975.59
2022-10-26T08:27:29.125Z,100979.66
2022-10-26T08:29:56.517Z,100983.81
2022-10-26T08:32:23.969Z,100990.03
2022-10-26T08:34:51.321Z,100986.03
2022-10-26T08:37:18.768Z,100992.03
2022-10-26T08:39:49.104Z,100993.59
2022-10-26T08:42:32.073Z,100991.47
2022-10-26T08:45:07.992Z,100993.31
2022-10-26T08:47:45.330Z,100998.03
2022-10-26T08:50:21.516Z,101003.56
2022-10-26T08:53:08.795Z,101008.50
2022-10-26T08:55:46.571Z,101007.63
2022-10-26T08:58:22.262Z,100994.13
2022-10-26T09:00:51.224Z,100997.69
2022-10-26T09:03:19.581Z,100998.84
2022-10-26T09:06:22.736Z,101001.56
2022-10-26T09:09:18.200Z,101005.56
2022-10-26T09:11:48.475Z,101012.00
2022-10-26T09:14:40.802Z,101002.31
2022-10-26T09:17:24.387Z,101002.72
2022-10-26T09:20:09.993Z,101008.97
2022-10-26T09:22:52.440Z,101007.94
2022-10-26T09:25:24.643Z,101008.47
2022-10-26T09:27:59.827Z,101009.16
2022-10-26T09:30:27.550Z,101002.44
2022-10-26T09:33:15.490Z,101020.16
2022-10-26T09:36:01.456Z,101022.44
2022-10-26T09:38:37.343Z,101018.56
2022-10-26T09:41:19.606Z,101017.88
2022-10-26T09:44:02.222Z,101008.97
2022-10-26T09:46:34.162Z,101013.50
2022-10-26T09:49:07.113Z,101011.63
2022-10-26T09:51:39.532Z,101012.28
2022-10-26T09:54:18.939Z,101006.91
2022-10-26T09:56:52.063Z,101010.66
2022-10-26T09:59:22.922Z,101008.75
2022-10-26T10:01:50.465Z,101002.00
2022-10-26T10:04:23.274Z,101003.34
2022-10-26T10:07:03.773Z,100998.06
2022-10-26T10:09:31.194Z,100999.22
2022-10-26T10:12:02.789Z,100991.22
2022-10-26T10:14:37.397Z,100991.63
2022-10-26T10:17:21.842Z,100982.00
2022-10-26T10:19:49.899Z,100981.78
2022-10-26T10:22:19.762Z,100978.81
2022-10-26T10:25:01.811Z,100977.03
2022-10-26T10:27:31.203Z,100980.41
2022-10-26T10:30:04.012Z,100982.03
2022-10-26T10:32:35.869Z,100982.97
2022-10-26T10:35:25.202Z,100977.13
2022-10-26T10:37:53.146Z,100978.22
2022-10-26T10:40:24.205Z,100978.31
2022-10-26T10:42:55.998Z,100975.66
2022-10-26T10:45:26.645Z,100968.69
2022-10-26T10:48:06.332Z,100965.84
2022-10-26T10:50:36.681Z,100959.28
2022-10-26T10:53:19.748Z,100962.06
2022-10-26T10:56:07.653Z,100954.63
2022-10-26T10:58:57.891Z,100953.84
2022-10-26T11:01:32.731Z,100947.91
2022-10-26T11:04:35.692Z,100947.09
2022-10-26T11:07:06.989Z,100944.84
2022-10-26T11:09:39.732Z,100939.84
2022-10-26T11:12:18.142Z,100939.63
2022-10-26T11:14:55.094Z,100939.50
2022-10-26T11:17:31.934Z,100945.34
2022-10-26T11:20:17.286Z,100926.44
2022-10-26T11:22:56.759Z,100947.00
2022-10-26T11:25:33.812Z,100936.38
2022-10-26T11:28:39.427Z,100937.75
2022-10-26T11:31:16.477Z,100946.63
2022-10-26T11:34:02.180Z,100943.66
2022-10-26T11:36:32.085Z,100936.94
2022-10-26T11:39:16.075Z,100941.63
2022-10-26T11:41:53.453Z,100942.94
2022-10-26T11:44:39.097Z,100950.34
2022-10-26T11:47:18.597Z,100943.63
2022-10-26T11:50:17.116Z,100943.13
2022-10-26T11:52:52.283Z,100939.38
2022-10-26T11:55:22.803Z,100935.16
2022-10-26T11:57:54.197Z,100924.16
2022-10-26T12:00:23.214Z,100943.59
2022-10-26T12:03:02.444Z,100938.06
2022-10-26T12:05:32.505Z,100934.44
2022-10-26T12:08:06.207Z,100938.06
2022-10-26T12:10:36.300Z,100928.19
2022-10-26T12:13:27.737Z,100935.22
2022-10-26T12:16:04.565Z,100930.94
2022-10-26T12:18:59.885Z,100936.41
2022-10-26T12:21:32.141Z,100930.16
2022-10-26T12:24:22.448Z,100917.50
2022-10-26T12:27:01.470Z,100922.88
2022-10-26T12:29:40.632Z,100919.69
2022-10-26T12:32:32.725Z,100914.59
2022-10-26T12:35:02.613Z,100915.22
2022-10-26T12:37:37.316Z,100919.06
2022-10-26T12:40:33.803Z,100923.47
2022-10-26T12:43:16.430Z,100921.47
2022-10-26T12:46:07.805Z,100920.19
2022-10-26T12:48:48.343Z,100916.56
2022-10-26T12:51:27.621Z,100922.50
2022-10-26T12:54:42.087Z,100916.38
2022-10-26T12:57:28.900Z,100906.41
2022-10-26T13:00:06.489Z,100910.16
2022-10-26T13:02:42.715Z,100925.75
2022-10-26T13:05:34.470Z,100913.22
2022-10-26T13:08:05.186Z,100923.28
2022-10-26T13:10:33.732Z,100913.66
2022-10-26T13:13:03.336Z,100917.59
2022-10-26T13:15:39.951Z,100918.81
2022-10-26T13:18:19.062Z,100914.09
2022-10-26T13:21:09.117Z,100912.59
2022-10-26T13:23:41.093Z,100916.28
2022-10-26T13:26:17.560Z,100912.25
2022-10-26T13:28:53.890Z,100905.56
2022-10-26T13:31:33.147Z,100912.22
2022-10-26T13:34:20.610Z,100913.97
2022-10-26T13:36:59.990Z,100914.09
2022-10-26T13:39:38.704Z,100910.41
2022-10-26T13:42:08.116Z,100906.53
2022-10-26T13:44:56.711Z,100911.28
2022-10-26T13:47:48.976Z,100916.75
2022-10-26T13:50:21.611Z,100913.59
2022-10-26T13:52:54.673Z,100924.16
2022-10-26T13:55:54.962Z,100915.34
2022-10-26T13:58:43.448Z,100927.16
2022-10-26T14:01:11.953Z,100932.47
2022-10-26T14:03:40.217Z,100936.59
2022-10-26T14:06:15.606Z,100941.31
2022-10-26T14:08:44.732Z,100934.97
2022-10-26T14:11:15.886Z,100939.09
2022-10-26T14:13:43.501Z,100945.72
2022-10-26T14:16:14.197Z,100945.94
2022-10-26T14:18:45.241Z,100952.69
2022-10-26T14:21:19.230Z,100958.38
2022-10-26T14:23:50.661Z,100947.94
2022-10-26T14:26:30.107Z,100954.13
2022-10-26T14:29:04.535Z,100957.75
2022-10-26T14:31:34.309Z,100953.63
2022-10-26T14:34:04.601Z,100952.25
2022-10-26T14:36:55.543Z,100957.75
2022-10-26T14:39:36.005Z,100953.78
2022-10-26T14:42:21.089Z,100969.44
2022-10-26T14:44:48.410Z,100977.19
2022-10-26T14:47:24.755Z,100964.78
2022-10-26T14:49:52.709Z,100971.84
2022-10-26T14:52:29.027Z,100973.22
2022-10-26T14:55:15.506Z,100947.91
2022-10-26T14:57:45.679Z,100968.38
2022-10-26T15:00:24.557Z,100963.22
2022-10-26T15:02:57.504Z,100966.25
2022-10-26T15:05:24.715Z,100969.66
2022-10-26T15:07:53.358Z,100967.91
2022-10-26T15:10:39.218Z,100965.16
2022-10-26T15:13:19.293Z,100964.09
2022-10-26T15:15:49.888Z,100965.78
2022-10-26T15:18:30.372Z,100965.78
2022-10-26T15:20:58.750Z,100958.19
2022-10-26T15:23:28.146Z,100964.50
2022-10-26T15:26:01.847Z,100964.47
2022-10-26T15:28:39.132Z,100969.28
2022-10-26T15:31:12.436Z,100964.94
2022-10-26T15:33:44.677Z,100957.13
2022-10-26T15:36:17.747Z,100959.31
2022-10-26T15:38:46.535Z,100969.06
2022-10-26T15:41:18.442Z,100960.59
2022-10-26T15:43:49.899Z,100961.91
2022-10-26T15:46:17.640Z,100969.91
2022-10-26T15:48:50.190Z,100965.16
2022-10-26T15:51:19.577Z,100969.53
2022-10-26T15:53:46.962Z,100980.81
2022-10-26T15:56:17.474Z,100972.94
2022-10-26T15:58:45.466Z,100975.97
2022-10-26T16:01:24.349Z,100974.91
2022-10-26T16:03:52.800Z,100973.09
2022-10-26T16:06:28.549Z,100987.19
2022-10-26T16:08:58.529Z,100993.47
2022-10-26T16:11:25.815Z,100993.03
2022-10-26T16:13:54.459Z,100997.66
2022-10-26T16:16:23.499Z,100999.97
2022-10-26T16:19:11.754Z,100995.13
2022-10-26T16:21:42.982Z,101007.41
2022-10-26T16:24:10.449Z,101001.81
2022-10-26T16:26:37.915Z,100997.69
2022-10-26T16:29:05.271Z,101011.91
2022-10-26T16:31:32.628Z,101006.75
2022-10-26T16:34:03.154Z,101010.69
2022-10-26T16:36:34.872Z,101008.22
2022-10-26T16:41:35.072Z,101016.97
2022-10-26T16:44:02.441Z,101021.63
2022-10-26T16:46:29.829Z,101032.28
2022-10-26T16:48:57.271Z,101021.09
2022-10-26T16:51:27.393Z,101038.38
2022-10-26T16:53:56.326Z,101049.75
2022-10-26T16:56:27.663Z,101054.38
2022-10-26T16:58:58.298Z,101057.69
2022-10-26T17:01:31.150Z,101052.56
2022-10-26T17:04:01.238Z,101056.91
2022-10-26T17:06:28.648Z,101061.78
2022-10-26T17:08:56.105Z,101052.44
2022-10-26T17:11:23.544Z,101061.22
2022-10-26T17:13:55.244Z,101069.84
2022-10-26T17:16:24.582Z,101074.47
2022-10-26T17:18:54.029Z,101086.84
2022-10-26T17:21:32.354Z,101079.66
2022-10-26T17:23:59.914Z,101083.69
2022-10-26T17:26:27.568Z,101084.56
2022-10-26T17:28:58.965Z,101089.19
2022-10-26T17:31:26.842Z,101088.31
2022-10-26T17:33:54.679Z,101077.66
2022-10-26T17:36:23.655Z,101083.28
2022-10-26T17:38:53.739Z,101077.09
2022-10-26T17:41:22.384Z,101085.88
2022-10-26T17:43:50.562Z,101075.38
2022-10-26T17:46:23.212Z,101076.81
2022-10-26T17:48:58.723Z,101076.38
2022-10-26T17:51:28.102Z,101078.41
2022-10-26T17:53:56.223Z,101082.28
2022-10-26T17:56:26.323Z,101079.13
2022-10-26T17:58:55.241Z,101082.00
2022-10-26T18:01:23.343Z,101090.91
2022-10-26T18:03:51.175Z,101091.91
2022-10-26T18:06:19.660Z,101098.94
2022-10-26T18:08:48.506Z,101094.19
2022-10-26T18:11:25.322Z,101097.53
2022-10-26T18:13:58.047Z,101107.63
2022-10-26T18:16:27.838Z,101099.41
2022-10-26T18:19:00.870Z,101114.94
2022-10-26T18:21:32.750Z,101108.00
2022-10-26T18:24:00.525Z,101122.84
2022-10-26T18:26:29.852Z,101115.06
2022-10-26T18:28:59.139Z,101125.13
2022-10-26T18:31:28.347Z,101126.13
2022-10-26T18:34:00.803Z,101127.97
2022-10-26T18:36:29.445Z,101135.81
2022-10-26T18:38:57.410Z,101126.88
2022-10-26T18:41:26.312Z,101125.88
2022-10-26T18:43:55.434Z,101140.81
2022-10-26T18:46:28.574Z,101136.38
2022-10-26T18:48:57.327Z,101138.81
2022-10-26T18:51:29.212Z,101139.97
2022-10-26T18:53:57.630Z,101142.22
2022-10-26T18:56:25.936Z,101145.25
2022-10-26T18:58:58.674Z,101141.47
2022-10-26T19:01:29.270Z,101148.81
2022-10-26T19:04:05.096Z,101134.16
2022-10-26T19:06:33.813Z,101143.97
2022-10-26T19:09:01.818Z,101140.50
2022-10-26T19:11:31.507Z,101149.88
2022-10-26T19:13:59.493Z,101143.97
2022-10-26T19:16:45.480Z,101150.00
2022-10-26T19:19:15.384Z,101148.09
2022-10-26T19:21:42.900Z,101145.66
2022-10-26T19:24:19.501Z,101157.00
2022-10-26T19:26:47.697Z,101156.00
2022-10-26T19:29:16.875Z,101153.94
2022-10-26T19:31:46.367Z,101161.25
2022-10-26T19:34:15.020Z,101162.06
2022-10-26T19:36:45.391Z,101160.53
2022-10-26T19:39:17.880Z,101172.00
2022-10-26T19:41:46.509Z,101172.81
2022-10-26T19:44:14.971Z,101174.41
2022-10-26T19:46:43.841Z,101172.28
2022-10-26T19:49:13.175Z,101174.38
2022-10-26T19:51:41.018Z,101183.78
2022-10-26T19:54:08.949Z,101176.28
2022-10-26T19:56:38.065Z,101180.47
2022-10-26T19:59:06.650Z,101186.59
2022-10-26T20:01:34.435Z,101195.44
2022-10-26T20:04:06.191Z,101185.28
2022-10-26T20:06:33.855Z,101186.59
2022-10-26T20:09:04.425Z,101184.63
2022-10-26T20:11:36.810Z,101189.41
2022-10-26T20:14:05.858Z,101167.03
2022-10-26T20:16:33.295Z,101179.16
2022-10-26T20:19:01.993Z,101180.34
2022-10-26T20:21:30.142Z,101182.09
2022-10-26T20:23:57.698Z,101183.22
2022-10-26T20:26:28.288Z,101178.69
2022-10-26T20:28:56.110Z,101184.63
2022-10-26T20:31:23.822Z,101193.59
2022-10-26T20:33:54.312Z,101192.09
2022-10-26T20:36:22.540Z,101188.75
2022-10-26T20:38:50.413Z,101194.72
2022-10-26T20:41:18.270Z,101197.56
2022-10-26T20:43:45.822Z,101200.44
2022-10-26T20:46:23.184Z,101202.41
2022-10-26T20:48:51.608Z,101193.59
2022-10-26T20:52:26.261Z,101192.56
2022-10-26T20:55:06.491Z,101197.59
2022-10-26T20:57:36.073Z,101188.94
2022-10-26T21:00:09.231Z,101203.38
2022-10-26T21:02:36.977Z,101205.63
2022-10-26T21:05:04.675Z,101201.06
2022-10-26T21:07:32.049Z,101205.75
2022-10-26T21:09:59.398Z,101204.69
2022-10-26T21:12:26.623Z,101201.91
2022-10-26T21:14:54.125Z,101198.56
2022-10-26T21:17:21.481Z,101204.06
2022-10-26T21:19:48.798Z,101196.53
2022-10-26T21:22:16.217Z,101193.69
2022-10-26T21:24:43.520Z,101192.69
2022-10-26T21:27:10.894Z,101181.72
2022-10-26T21:29:38.221Z,101186.28
2022-10-26T21:32:05.929Z,101194.47
2022-10-26T21:34:33.537Z,101187.91
2022-10-26T21:37:00.946Z,101200.06
2022-10-26T21:39:28.178Z,101204.03
2022-10-26T21:41:55.695Z,101202.44
2022-10-26T21:44:38.816Z,101199.94
2022-10-26T21:47:08.285Z,101200.31
2022-10-26T21:49:36.756Z,101207.00
2022-10-26T21:52:04.477Z,101209.72
2022-10-26T21:54:31.825Z,101210.13
2022-10-26T21:56:59.208Z,101203.94
2022-10-26T21:59:26.664Z,101199.25
2022-10-26T22:01:54.150Z,101202.19
2022-10-26T22:04:21.572Z,101199.38
2022-10-26T22:06:50.028Z,101210.75
2022-10-26T22:09:17.745Z,101192.44
2022-10-26T22:11:45.106Z,101206.31
2022-10-26T22:14:15.692Z,101200.34
2022-10-26T22:16:43.020Z,101201.34
2022-10-26T22:19:10.792Z,101200.25
2022-10-26T22:21:41.500Z,101197.88
2022-10-26T22:24:09.452Z,101202.34
2022-10-26T22:26:37.913Z,101204.81
2022-10-26T22:29:05.905Z,101208.03
2022-10-26T22:31:37.340Z,101211.63
2022-10-26T22:34:08.238Z,101210.03
2022-10-26T22:36:36.075Z,101207.44
2022-10-26T22:39:03.822Z,101195.66
2022-10-26T22:41:31.162Z,101210.03
2022-10-26T22:43:58.473Z,101197.50
2022-10-26T22:46:27.950Z,101209.50
2022-10-26T22:48:57.024Z,101202.47
2022-10-26T22:51:27.270Z,101197.50
2022-10-26T22:53:56.738Z,101205.81
2022-10-26T22:58:58.029Z,101214.97
2022-10-26T23:01:34.085Z,101205.19
2022-10-26T23:04:01.513Z,101218.69
2022-10-26T23:06:31.211Z,101212.00
2022-10-26T23:08:58.878Z,101213.97
2022-10-26T23:11:28.329Z,101221.25
2022-10-26T23:14:00.265Z,101227.31
2022-10-26T23:16:28.911Z,101223.97
2022-10-26T23:18:56.598Z,101222.13
2022-10-26T23:23:57.753Z,101223.38
2022-10-26T23:26:25.749Z,101229.53
2022-10-26T23:28:53.139Z,101232.00
2022-10-26T23:31:25.905Z,101235.59
2022-10-26T23:33:55.699Z,101233.47
2022-10-26T23:36:23.961Z,101233.75
2022-10-26T23:38:51.325Z,101232.25
2022-10-26T23:41:18.748Z,101241.50
2022-10-26T23:43:46.001Z,101229.75
2022-10-26T23:46:13.500Z,101219.47
2022-10-26T23:48:40.949Z,101225.31
2022-10-26T23:51:08.467Z,101223.75
2022-10-26T23:53:36.119Z,101223.09
2022-10-26T23:56:03.699Z,101219.00
2022-10-26T23:58:30.990Z,101226.56
